createdAt,value
2022-10-18T00:00:00.817Z,23.23
2022-10-18T00:02:27.329Z,21.88
2022-10-18T00:04:53.697Z,17.38
2022-10-18T00:07:19.947Z,19.73
2022-10-18T00:09:46.192Z,52.55
2022-10-18T00:12:12.429Z,21.60
2022-10-18T00:14:38.665Z,21.67
2022-10-18T00:17:04.928Z,14.98
2022-10-18T00:19:31.187Z,21.52
2022-10-18T00:21:57.449Z,20.10
2022-10-18T00:24:23.729Z,21.92
2022-10-18T00:26:49.968Z,43.28
2022-10-18T00:29:16.588Z,30.40
2022-10-18T00:31:43.390Z,21.38
2022-10-18T00:34:13.915Z,31.92
2022-10-18T00:36:40.660Z,19.15
2022-10-18T00:39:07.678Z,20.63
2022-10-18T00:44:11.983Z,17.55
2022-10-18T00:46:39.449Z,16.65
2022-10-18T00:49:11.386Z,19.98
2022-10-18T00:51:44.876Z,17.48
2022-10-18T00:54:12.256Z,15.10
2022-10-18T00:56:38.528Z,32.95
2022-10-18T00:59:04.780Z,16.63
2022-10-18T01:01:31.090Z,14.90
2022-10-18T01:03:58.018Z,14.82
2022-10-18T01:06:24.988Z,17.17
2022-10-18T01:11:20.465Z,12.95
2022-10-18T01:13:46.679Z,14.55
2022-10-18T01:16:42.356Z,18.65
2022-10-18T01:19:14.338Z,20.45
2022-10-18T01:21:46.974Z,20.67
2022-10-18T01:24:13.177Z,13.82
2022-10-18T01:27:02.107Z,16.42
2022-10-18T01:29:37.540Z,14.43
2022-10-18T01:32:06.736Z,17.25
2022-10-18T01:34:35.128Z,14.30
2022-10-18T01:37:02.870Z,20.83
2022-10-18T01:39:30.926Z,11.75
2022-10-18T01:41:59.042Z,13.98
2022-10-18T01:44:26.392Z,23.52
2022-10-18T01:46:53.210Z,21.50
2022-10-18T01:49:19.448Z,18.67
2022-10-18T01:51:45.701Z,13.52
2022-10-18T01:54:13.210Z,12.85
2022-10-18T01:56:44.679Z,12.23
2022-10-18T01:59:29.727Z,11.15
2022-10-18T02:02:14.299Z,13.20
2022-10-18T02:04:51.112Z,13.27
2022-10-18T02:07:17.311Z,18.58
2022-10-18T02:09:50.303Z,15.15
2022-10-18T02:12:17.010Z,17.88
2022-10-18T02:14:43.753Z,15.10
2022-10-18T02:17:11.402Z,12.98
2022-10-18T02:19:40.302Z,16.25
2022-10-18T02:22:08.028Z,11.90
2022-10-18T02:24:52.933Z,14.85
2022-10-18T02:27:19.420Z,19.92
2022-10-18T02:29:45.817Z,13.13
2022-10-18T02:32:21.225Z,10.75
2022-10-18T02:34:56.905Z,14.63
2022-10-18T02:37:24.374Z,11.18
2022-10-18T02:39:51.364Z,11.70
2022-10-18T02:44:43.752Z,19.73
2022-10-18T02:47:11.394Z,15.65
2022-10-18T02:49:37.786Z,11.07
2022-10-18T02:52:04.172Z,11.25
2022-10-18T02:54:30.394Z,18.98
2022-10-18T02:56:56.630Z,14.80
2022-10-18T02:59:22.837Z,14.25
2022-10-18T03:01:49.131Z,15.82
2022-10-18T03:04:15.440Z,12.95
2022-10-18T03:06:41.767Z,14.05
2022-10-18T03:09:07.978Z,10.85
2022-10-18T03:11:34.278Z,8.13
2022-10-18T03:14:00.553Z,19.58
2022-10-18T03:16:27.240Z,28.08
2022-10-18T03:18:53.465Z,16.80
2022-10-18T03:21:19.694Z,11.20
2022-10-18T03:23:45.898Z,16.70
2022-10-18T03:26:12.118Z,12.27
2022-10-18T03:28:38.365Z,16.27
2022-10-18T03:31:05.118Z,11.85
2022-10-18T03:33:31.972Z,14.43
2022-10-18T03:35:58.238Z,14.38
2022-10-18T03:38:24.471Z,11.00
2022-10-18T03:40:50.949Z,13.77
2022-10-18T03:43:17.183Z,14.05
2022-10-18T03:45:43.419Z,16.17
2022-10-18T03:48:09.665Z,14.70
2022-10-18T03:50:35.866Z,16.63
2022-10-18T03:53:02.110Z,14.10
2022-10-18T03:55:28.334Z,11.30
2022-10-18T03:57:54.562Z,12.52
2022-10-18T04:00:20.902Z,13.77
2022-10-18T04:02:49.680Z,10.65
2022-10-18T04:05:18.328Z,12.68
2022-10-18T04:07:44.562Z,9.20
2022-10-18T04:10:10.994Z,12.48
2022-10-18T04:12:37.293Z,13.38
2022-10-18T04:15:03.697Z,11.52
2022-10-18T04:17:30.123Z,10.48
2022-10-18T04:19:56.698Z,16.90
2022-10-18T04:22:22.942Z,15.98
2022-10-18T04:24:49.209Z,16.17
2022-10-18T04:27:16.453Z,18.35
2022-10-18T04:29:42.666Z,13.65
2022-10-18T04:32:08.951Z,13.75
2022-10-18T04:34:35.236Z,17.13
2022-10-18T04:37:01.541Z,21.10
2022-10-18T04:39:27.788Z,11.57
2022-10-18T04:41:54.016Z,14.00
2022-10-18T04:44:20.237Z,20.27
2022-10-18T04:46:46.496Z,23.65
2022-10-18T04:49:12.801Z,19.67
2022-10-18T04:51:39.203Z,13.35
2022-10-18T04:54:05.635Z,17.90
2022-10-18T04:56:32.179Z,26.58
2022-10-18T04:58:58.668Z,11.70
2022-10-18T05:01:24.948Z,17.98
2022-10-18T05:03:51.924Z,19.50
2022-10-18T05:06:18.119Z,9.77
2022-10-18T05:08:44.350Z,15.60
2022-10-18T05:13:41.743Z,14.30
2022-10-18T05:16:07.973Z,16.40
2022-10-18T05:18:34.210Z,15.95
2022-10-18T05:21:00.438Z,16.70
2022-10-18T05:23:26.751Z,19.70
2022-10-18T05:25:53.605Z,33.35
2022-10-18T05:31:06.802Z,17.65
2022-10-18T05:33:33.073Z,12.93
2022-10-18T05:35:59.372Z,15.32
2022-10-18T05:38:25.782Z,19.08
2022-10-18T05:40:52.234Z,14.05
2022-10-18T05:43:18.589Z,15.60
2022-10-18T05:45:48.826Z,12.85
2022-10-18T05:48:15.080Z,18.27
2022-10-18T05:50:41.337Z,19.55
2022-10-18T05:53:18.355Z,14.90
2022-10-18T05:55:53.820Z,10.73
2022-10-18T05:58:20.101Z,12.85
2022-10-18T06:00:46.351Z,15.75
2022-10-18T06:03:12.705Z,19.35
2022-10-18T06:08:10.398Z,25.52
2022-10-18T06:10:38.718Z,15.25
2022-10-18T06:13:04.955Z,14.07
2022-10-18T06:15:31.694Z,18.00
2022-10-18T06:17:58.052Z,18.05
2022-10-18T06:20:24.495Z,25.48
2022-10-18T06:22:53.776Z,24.88
2022-10-18T06:25:19.991Z,17.58
2022-10-18T06:27:46.307Z,18.92
2022-10-18T06:30:12.727Z,22.73
2022-10-18T06:32:38.940Z,17.42
2022-10-18T06:35:05.491Z,15.98
2022-10-18T06:37:32.130Z,21.33
2022-10-18T06:39:58.536Z,8.95
2022-10-18T06:42:24.758Z,16.27
2022-10-18T06:44:50.992Z,16.50
2022-10-18T06:47:17.211Z,18.63
2022-10-18T06:49:43.452Z,15.45
2022-10-18T06:52:09.732Z,16.27
2022-10-18T06:54:36.025Z,13.55
2022-10-18T06:57:03.088Z,12.90
2022-10-18T06:59:31.305Z,11.63
2022-10-18T07:01:58.062Z,15.75
2022-10-18T07:04:24.454Z,15.88
2022-10-18T07:06:50.661Z,9.38
2022-10-18T07:09:16.919Z,13.68
2022-10-18T07:11:43.151Z,16.02
2022-10-18T07:14:12.557Z,14.40
2022-10-18T07:16:41.855Z,9.90
2022-10-18T07:19:08.214Z,14.85
2022-10-18T07:21:34.428Z,22.80
2022-10-18T07:24:00.695Z,11.55
2022-10-18T07:26:32.275Z,16.13
2022-10-18T07:29:04.442Z,34.10
2022-10-18T07:31:30.768Z,17.17
2022-10-18T07:33:57.031Z,14.88
2022-10-18T07:36:24.392Z,14.55
2022-10-18T07:38:51.880Z,14.20
2022-10-18T07:41:18.433Z,10.18
2022-10-18T07:43:45.934Z,9.70
2022-10-18T07:46:12.753Z,15.05
2022-10-18T07:48:39.165Z,15.57
2022-10-18T07:51:05.490Z,15.05
2022-10-18T07:53:32.123Z,7.90
2022-10-18T07:55:59.151Z,11.50
2022-10-18T08:00:51.517Z,12.02
2022-10-18T08:03:17.731Z,15.10
2022-10-18T08:05:43.984Z,8.82
2022-10-18T08:08:10.322Z,16.35
2022-10-18T08:10:36.656Z,18.65
2022-10-18T08:13:02.880Z,10.00
2022-10-18T08:15:29.101Z,6.32
2022-10-18T08:17:55.282Z,10.48
2022-10-18T08:20:30.285Z,15.27
2022-10-18T08:23:00.133Z,16.42
2022-10-18T08:25:27.197Z,10.40
2022-10-18T08:27:53.489Z,11.50
2022-10-18T08:30:19.711Z,11.70
2022-10-18T08:32:45.902Z,8.82
2022-10-18T08:35:12.097Z,13.73
2022-10-18T08:37:38.392Z,17.75
2022-10-18T08:40:04.876Z,11.20
2022-10-18T08:42:31.300Z,10.20
2022-10-18T08:44:57.814Z,9.35
2022-10-18T08:47:31.183Z,8.30
2022-10-18T08:50:20.932Z,9.70
2022-10-18T08:52:58.432Z,16.63
2022-10-18T08:57:51.447Z,8.60
2022-10-18T09:00:22.615Z,8.82
2022-10-18T09:03:04.573Z,9.30
2022-10-18T09:05:46.173Z,11.48
2022-10-18T09:08:25.327Z,10.98
2022-10-18T09:10:54.406Z,10.90
2022-10-18T09:13:36.170Z,8.95
2022-10-18T09:16:03.709Z,10.77
2022-10-18T09:18:41.668Z,6.88
2022-10-18T09:21:22.989Z,8.10
2022-10-18T09:24:05.709Z,10.27
2022-10-18T09:26:38.742Z,13.55
2022-10-18T09:29:17.286Z,8.52
2022-10-18T09:31:43.588Z,6.93
2022-10-18T09:34:18.998Z,10.00
2022-10-18T09:36:45.247Z,15.00
2022-10-18T09:39:13.286Z,7.28
2022-10-18T09:41:45.376Z,7.28
2022-10-18T09:44:31.853Z,11.50
2022-10-18T09:47:14.599Z,13.55
2022-10-18T09:49:45.484Z,7.05
2022-10-18T09:52:25.124Z,11.43
2022-10-18T09:54:55.257Z,7.32
2022-10-18T09:57:31.352Z,11.88
2022-10-18T09:59:58.800Z,8.50
2022-10-18T10:02:25.146Z,7.00
2022-10-18T10:04:54.022Z,15.23
2022-10-18T10:07:21.421Z,8.23
2022-10-18T10:09:49.002Z,8.82
2022-10-18T10:12:32.279Z,9.68
2022-10-18T10:15:17.848Z,7.32
2022-10-18T10:17:44.798Z,7.88
2022-10-18T10:22:38.718Z,9.25
2022-10-18T10:25:05.476Z,8.30
2022-10-18T10:27:34.814Z,8.52
2022-10-18T10:30:06.707Z,11.88
2022-10-18T10:32:44.733Z,6.45
2022-10-18T10:35:41.274Z,12.32
2022-10-18T10:38:22.083Z,7.32
2022-10-18T10:40:51.366Z,5.50
2022-10-18T10:43:37.141Z,7.57
2022-10-18T10:46:11.852Z,6.25
2022-10-18T10:48:45.531Z,7.60
2022-10-18T10:51:14.858Z,9.27
2022-10-18T10:53:50.594Z,6.38
2022-10-18T10:56:20.813Z,6.30
2022-10-18T10:58:47.137Z,4.28
2022-10-18T11:01:21.099Z,4.55
2022-10-18T11:03:48.614Z,5.10
2022-10-18T11:06:33.251Z,4.97
2022-10-18T11:09:01.433Z,3.17
2022-10-18T11:11:31.485Z,4.55
2022-10-18T11:14:24.856Z,2.47
2022-10-18T11:17:15.448Z,3.88
2022-10-18T11:20:02.441Z,3.38
2022-10-18T11:22:32.415Z,3.30
2022-10-18T11:24:58.895Z,2.63
2022-10-18T11:29:55.560Z,6.93
2022-10-18T11:32:29.744Z,3.55
2022-10-18T11:35:08.432Z,4.60
2022-10-18T11:37:42.823Z,9.48
2022-10-18T11:40:29.456Z,4.85
2022-10-18T11:43:14.398Z,4.68
2022-10-18T11:45:40.644Z,5.85
2022-10-18T11:48:21.964Z,4.85
2022-10-18T11:50:52.025Z,2.88
2022-10-18T11:53:18.244Z,3.47
2022-10-18T11:58:29.280Z,3.42
2022-10-18T12:01:01.060Z,3.95
2022-10-18T12:03:34.685Z,5.30
2022-10-18T12:06:06.378Z,4.05
2022-10-18T12:08:41.002Z,2.33
2022-10-18T12:11:14.395Z,4.18
2022-10-18T12:13:46.304Z,4.20
2022-10-18T12:16:12.683Z,4.43
2022-10-18T12:18:46.918Z,5.22
2022-10-18T12:21:13.622Z,3.00
2022-10-18T12:23:51.300Z,3.70
2022-10-18T12:26:17.683Z,4.53
2022-10-18T12:28:50.030Z,3.70
2022-10-18T12:31:16.261Z,2.10
2022-10-18T12:33:44.970Z,3.13
2022-10-18T12:36:20.328Z,6.35
2022-10-18T12:38:54.566Z,3.70
2022-10-18T12:41:22.845Z,4.53
2022-10-18T12:44:12.077Z,4.10
2022-10-18T12:46:44.452Z,7.78
2022-10-18T12:49:11.607Z,3.47
2022-10-18T12:51:49.280Z,8.25
2022-10-18T12:54:16.989Z,3.55
2022-10-18T12:56:43.953Z,3.75
2022-10-18T12:59:16.138Z,3.20
2022-10-18T13:01:51.794Z,3.10
2022-10-18T13:04:26.935Z,3.55
2022-10-18T13:07:05.449Z,5.35
2022-10-18T13:09:37.459Z,3.92
2022-10-18T13:12:09.800Z,6.13
2022-10-18T13:15:05.956Z,7.70
2022-10-18T13:18:15.219Z,4.32
2022-10-18T13:20:47.771Z,11.63
2022-10-18T13:23:17.158Z,9.07
2022-10-18T13:26:01.843Z,7.07
2022-10-18T13:28:52.845Z,4.95
2022-10-18T13:31:22.096Z,4.25
2022-10-18T13:33:48.547Z,4.43
2022-10-18T13:36:22.643Z,6.78
2022-10-18T13:38:57.464Z,4.47
2022-10-18T13:43:57.769Z,5.55
2022-10-18T13:46:24.041Z,9.55
2022-10-18T13:48:50.277Z,6.28
2022-10-18T13:51:16.472Z,5.35
2022-10-18T13:53:47.754Z,3.40
2022-10-18T13:56:20.889Z,7.53
2022-10-18T13:59:14.549Z,5.07
2022-10-18T14:01:53.668Z,8.00
2022-10-18T14:04:29.134Z,3.78
2022-10-18T14:07:02.050Z,5.60
2022-10-18T14:09:43.741Z,5.22
2022-10-18T14:12:23.029Z,5.68
2022-10-18T14:14:55.094Z,8.90
2022-10-18T14:17:24.353Z,5.38
2022-10-18T14:20:00.005Z,7.68
2022-10-18T14:22:29.162Z,10.52
2022-10-18T14:24:56.210Z,6.03
2022-10-18T14:27:32.921Z,3.85
2022-10-18T14:30:08.413Z,7.25
2022-10-18T14:32:34.699Z,4.53
2022-10-18T14:35:30.478Z,5.47
2022-10-18T14:37:48.759Z,7.90
2022-10-18T14:40:35.003Z,9.88
2022-10-18T14:43:06.204Z,5.65
2022-10-18T14:45:32.546Z,12.68
2022-10-18T14:48:05.405Z,3.65
2022-10-18T14:50:31.731Z,7.35
2022-10-18T14:52:58.103Z,7.63
2022-10-18T14:55:25.514Z,6.78
2022-10-18T14:57:51.907Z,7.88
2022-10-18T15:02:53.923Z,8.63
2022-10-18T15:05:21.949Z,5.85
2022-10-18T15:07:48.824Z,5.32
2022-10-18T15:13:04.449Z,4.80
2022-10-18T15:15:32.577Z,4.47
2022-10-18T15:17:59.552Z,13.20
2022-10-18T15:20:30.834Z,5.28
2022-10-18T15:23:26.747Z,6.05
2022-10-18T15:25:59.472Z,5.85
2022-10-18T15:28:33.531Z,10.65
2022-10-18T15:31:01.742Z,3.65
2022-10-18T15:33:33.582Z,4.78
2022-10-18T15:36:10.457Z,3.28
2022-10-18T15:38:37.395Z,8.23
2022-10-18T15:41:23.909Z,3.03
2022-10-18T15:43:50.181Z,3.13
2022-10-18T15:46:30.929Z,3.33
2022-10-18T15:49:00.907Z,5.53
2022-10-18T15:51:59.386Z,8.35
2022-10-18T15:54:31.573Z,8.02
2022-10-18T15:56:58.012Z,8.00
2022-10-18T15:59:28.603Z,7.97
2022-10-18T16:01:55.023Z,7.63
2022-10-18T16:04:28.697Z,8.73
2022-10-18T16:06:55.950Z,2.63
2022-10-18T16:09:23.402Z,4.00
2022-10-18T16:11:56.425Z,6.35
2022-10-18T16:14:23.194Z,3.45
2022-10-18T16:16:51.530Z,3.08
2022-10-18T16:19:24.008Z,6.63
2022-10-18T16:21:51.415Z,4.30
2022-10-18T16:24:18.300Z,4.93
2022-10-18T16:26:44.614Z,7.47
2022-10-18T16:29:25.774Z,8.77
2022-10-18T16:31:53.660Z,6.40
2022-10-18T16:34:19.924Z,11.00
2022-10-18T16:36:46.292Z,13.20
2022-10-18T16:39:14.161Z,9.93
2022-10-18T16:41:40.371Z,7.75
2022-10-18T16:44:06.709Z,8.98
2022-10-18T16:46:33.771Z,10.13
2022-10-18T16:49:00.733Z,9.50
2022-10-18T16:53:56.133Z,6.20
2022-10-18T16:56:24.786Z,3.45
2022-10-18T16:58:51.059Z,3.22
2022-10-18T17:01:18.851Z,3.65
2022-10-18T17:03:45.468Z,4.07
2022-10-18T17:06:15.892Z,6.10
2022-10-18T17:08:42.227Z,4.95
2022-10-18T17:11:09.970Z,1.77
2022-10-18T17:13:36.212Z,3.65
2022-10-18T17:16:03.719Z,3.88
2022-10-18T17:18:30.661Z,1.63
2022-10-18T17:23:23.345Z,7.00
2022-10-18T17:26:04.849Z,1.40
2022-10-18T17:28:33.376Z,6.32
2022-10-18T17:30:59.646Z,2.33
2022-10-18T17:33:25.894Z,3.72
2022-10-18T17:35:52.121Z,4.57
2022-10-18T17:38:18.395Z,2.72
2022-10-18T17:40:44.634Z,6.30
2022-10-18T17:43:13.195Z,5.07
2022-10-18T17:45:47.712Z,1.92
2022-10-18T17:48:13.916Z,4.55
2022-10-18T17:50:40.732Z,5.30
2022-10-18T17:53:06.984Z,2.72
2022-10-18T17:55:36.136Z,5.47
2022-10-18T17:58:02.387Z,5.05
2022-10-18T18:00:28.973Z,3.50
2022-10-18T18:02:59.115Z,2.22
2022-10-18T18:05:25.568Z,19.05
2022-10-18T18:07:51.888Z,8.60
2022-10-18T18:10:18.130Z,11.32
2022-10-18T18:12:45.427Z,6.78
2022-10-18T18:15:12.025Z,10.82
2022-10-18T18:17:56.049Z,8.13
2022-10-18T18:20:24.270Z,7.97
2022-10-18T18:22:50.740Z,5.80
2022-10-18T18:25:17.077Z,22.75
2022-10-18T18:27:43.337Z,18.85
2022-10-18T18:30:09.734Z,11.32
2022-10-18T18:32:35.999Z,13.05
2022-10-18T18:35:02.307Z,15.00
2022-10-18T18:37:28.621Z,5.95
2022-10-18T18:39:55.020Z,10.90
2022-10-18T18:42:22.442Z,4.45
2022-10-18T18:44:49.859Z,7.55
2022-10-18T18:47:16.141Z,10.45
2022-10-18T18:49:42.526Z,5.15
2022-10-18T18:52:08.764Z,5.60
2022-10-18T18:54:35.004Z,6.80
2022-10-18T18:57:05.229Z,5.15
2022-10-18T18:59:31.549Z,7.20
2022-10-18T19:01:57.811Z,7.78
2022-10-18T19:04:24.048Z,12.30
2022-10-18T19:06:50.297Z,10.00
2022-10-18T19:09:22.119Z,15.80
2022-10-18T19:11:49.436Z,9.05
2022-10-18T19:14:15.824Z,4.03
2022-10-18T19:16:48.919Z,3.63
2022-10-18T19:19:19.677Z,3.80
2022-10-18T19:21:47.422Z,3.72
2022-10-18T19:24:13.781Z,5.70
2022-10-18T19:26:45.214Z,6.03
2022-10-18T19:29:12.962Z,3.17
2022-10-18T19:31:39.989Z,2.47
2022-10-18T19:34:07.723Z,8.65
2022-10-18T19:36:34.270Z,1.73
2022-10-18T19:39:00.753Z,7.47
2022-10-18T19:41:28.649Z,2.30
2022-10-18T19:43:55.797Z,4.70
2022-10-18T19:48:48.286Z,3.00
2022-10-18T19:51:19.392Z,8.70
2022-10-18T19:53:49.355Z,6.85
2022-10-18T19:56:20.469Z,4.07
2022-10-18T19:58:47.098Z,3.50
2022-10-18T20:01:13.883Z,2.72
2022-10-18T20:03:40.739Z,2.95
2022-10-18T20:06:07.101Z,4.30
2022-10-18T20:08:33.858Z,7.03
2022-10-18T20:11:01.160Z,6.90
2022-10-18T20:13:27.406Z,5.90
2022-10-18T20:15:53.732Z,3.08
2022-10-18T20:18:20.387Z,4.38
2022-10-18T20:20:49.795Z,5.40
2022-10-18T20:23:16.639Z,6.30
2022-10-18T20:25:43.417Z,13.20
2022-10-18T20:28:09.642Z,8.85
2022-10-18T20:30:35.864Z,5.30
2022-10-18T20:33:02.122Z,7.63
2022-10-18T20:35:28.393Z,7.88
2022-10-18T20:37:54.601Z,6.65
2022-10-18T20:40:20.861Z,7.10
2022-10-18T20:42:47.087Z,8.30
2022-10-18T20:45:13.339Z,6.15
2022-10-18T20:47:39.566Z,3.28
2022-10-18T20:50:05.920Z,3.30
2022-10-18T20:52:32.125Z,5.28
2022-10-18T20:54:58.326Z,4.88
2022-10-18T20:57:24.578Z,6.25
2022-10-18T20:59:50.864Z,5.43
2022-10-18T21:02:17.148Z,9.18
2022-10-18T21:04:43.412Z,4.28
2022-10-18T21:07:09.626Z,9.35
2022-10-18T21:09:35.891Z,8.73
2022-10-18T21:12:02.222Z,8.75
2022-10-18T21:14:28.592Z,4.10
2022-10-18T21:16:54.907Z,7.10
2022-10-18T21:19:25.647Z,5.50
2022-10-18T21:21:54.251Z,4.95
2022-10-18T21:24:21.254Z,6.95
2022-10-18T21:29:19.332Z,7.57
2022-10-18T21:31:48.055Z,6.50
2022-10-18T21:34:15.666Z,8.02
2022-10-18T21:36:42.659Z,9.23
2022-10-18T21:41:35.125Z,14.00
2022-10-18T21:44:04.501Z,7.13
2022-10-18T21:46:33.226Z,8.30
2022-10-18T21:48:59.596Z,12.45
2022-10-18T21:51:26.927Z,7.03
2022-10-18T21:53:54.090Z,7.05
2022-10-18T21:56:21.881Z,10.30
2022-10-18T21:58:48.139Z,9.77
2022-10-18T22:01:15.540Z,8.30
2022-10-18T22:03:42.222Z,9.65
2022-10-18T22:06:13.065Z,7.63
2022-10-18T22:08:39.722Z,15.75
2022-10-18T22:11:06.141Z,22.77
2022-10-18T22:13:32.410Z,22.25
2022-10-18T22:16:02.488Z,17.20
2022-10-18T22:18:28.888Z,9.35
2022-10-18T22:20:59.663Z,12.80
2022-10-18T22:23:31.200Z,10.20
2022-10-18T22:26:01.268Z,9.85
2022-10-18T22:28:27.587Z,11.30
2022-10-18T22:30:53.863Z,8.52
2022-10-18T22:33:20.172Z,8.88
2022-10-18T22:35:49.685Z,11.93
2022-10-18T22:38:16.079Z,13.88
2022-10-18T22:40:42.294Z,13.13
2022-10-18T22:43:08.503Z,11.52
2022-10-18T22:45:34.764Z,8.95
2022-10-18T22:48:00.988Z,12.57
2022-10-18T22:50:27.183Z,12.77
2022-10-18T22:52:54.618Z,14.82
2022-10-18T22:55:20.981Z,13.20
2022-10-18T22:57:47.270Z,11.80
2022-10-18T23:00:13.762Z,11.25
2022-10-18T23:02:39.977Z,16.27
2022-10-18T23:05:06.335Z,8.77
2022-10-18T23:07:32.534Z,14.05
2022-10-18T23:09:58.771Z,14.63
2022-10-18T23:12:25.061Z,13.98
2022-10-18T23:14:51.303Z,11.98
2022-10-18T23:17:17.542Z,14.48
2022-10-18T23:19:43.750Z,15.10
2022-10-18T23:22:09.979Z,13.13
2022-10-18T23:24:36.218Z,15.38
2022-10-18T23:27:02.444Z,11.02
2022-10-18T23:29:28.672Z,12.73
2022-10-18T23:31:54.874Z,16.27
2022-10-18T23:34:21.160Z,23.38
2022-10-18T23:36:47.402Z,19.48
2022-10-18T23:39:13.663Z,20.42
2022-10-18T23:41:39.860Z,23.83
2022-10-18T23:44:06.900Z,24.20
2022-10-18T23:46:33.098Z,20.30
2022-10-18T23:48:59.305Z,19.60
2022-10-18T23:51:25.503Z,15.05
2022-10-18T23:53:51.727Z,17.70
2022-10-18T23:56:18.143Z,21.13
2022-10-18T23:58:44.883Z,26.27
